Deo Volente — PHFJ — position and weather

sailwx.info

Track history (hours):
 
Tides and Currents Weather Stations Pressure Air Temp Water Temp Dewpoint Dewpoint Depression Visibility Wind Speed Wind Dir Waves Ship Positions

Deo Volente

Last reported at 2018-Apr-22 11:40 UTC. Time now 2018-Apr-23 05:43 UTC.
Position N 37°42' E 016°10'.

Length 105 m; draft 5.2 m.

Type: Cargo ship. MMSI: 246518000.

Date/timePositionNaut miles runAvg speedWind from/ knotsBaromVisibWave heightAir tempDewpointWater temp
2018-Apr-22 11:40N 37°42' E 016°10'317.2
2018-Apr-22 11:28N 37°44' E 016°06'816.8
2018-Apr-22 11:01N 37°47' E 015°57'816.9
2018-Apr-22 10:31N 37°51' E 015°48'817.0
2018-Apr-22 10:01N 37°56' E 015°39'1018.6
2018-Apr-22 09:29N 38°05' E 015°36'918.8
2018-Apr-22 09:01N 38°14' E 015°36'612.3
2018-Apr-22 08:31N 38°20' E 015°37'917.7
2018-Apr-22 08:01N 38°27' E 015°30'918.0
2018-Apr-22 07:30N 38°34' E 015°22'918.0
2018-Apr-22 07:00N 38°40' E 015°14'917.7
2018-Apr-22 06:29N 38°47' E 015°06'7017.8
2018-Apr-22 02:33N 39°34' E 013°59'118.3
2018-Apr-22 02:30N 39°34' E 013°58'918.0
2018-Apr-22 02:00N 39°40' E 013°49'917.8
2018-Apr-22 01:30N 39°46' E 013°41'917.6
2018-Apr-22 01:00N 39°52' E 013°32'917.8
2018-Apr-22 00:30N 39°58' E 013°24'3018.0
2018-Apr-21 22:51N 40°19' E 012°55'817.8
2018-Apr-21 22:23N 40°24' E 012°47'718.0
2018-Apr-21 21:59N 40°29' E 012°40'1817.9
2018-Apr-21 20:58N 40°42' E 012°23'7317.5
2018-Apr-21 16:48N 41°31' E 011°11'8517.4
2018-Apr-21 11:55N 42°31' E 009°51'2317.4
2018-Apr-21 10:36N 42°52' E 009°37'317.8
2018-Apr-21 10:26N 42°55' E 009°36'818.0
2018-Apr-21 10:00N 43°02' E 009°34'917.9
2018-Apr-21 09:30N 43°09' E 009°25'917.9
2018-Apr-21 09:00N 43°13' E 009°15'917.4
2018-Apr-21 08:30N 43°18' E 009°05'917.4
2018-Apr-21 08:00N 43°23' E 008°55'917.5
2018-Apr-21 07:30N 43°29' E 008°46'917.3
2018-Apr-21 07:00N 43°34' E 008°37'816.8
2018-Apr-21 06:30N 43°39' E 008°27'816.9
2018-Apr-21 06:00N 43°44' E 008°18'4 0.2
2018-Apr-20 13:11N 43°45' E 008°23'318.3
2018-Apr-20 13:00N 43°43' E 008°27'917.2
2018-Apr-20 12:30N 43°37' E 008°35'917.8
2018-Apr-20 12:00N 43°32' E 008°45'917.7
2018-Apr-20 11:30N 43°27' E 008°55'917.5
2018-Apr-20 11:00N 43°21' E 009°04'918.0
2018-Apr-20 10:30N 43°16' E 009°14'917.6
2018-Apr-20 10:00N 43°11' E 009°24'917.5
2018-Apr-20 09:30N 43°05' E 009°33'917.5
2018-Apr-20 09:00N 42°58' E 009°41'1217.6
2018-Apr-20 08:19N 42°47' E 009°47'617.8
2018-Apr-20 08:00N 42°45' E 009°54'917.7
2018-Apr-20 07:30N 42°41' E 010°05'917.8
2018-Apr-20 06:58N 42°38' E 010°17'817.8
2018-Apr-20 06:30N 42°35' E 010°27'30 1.6
2018-Apr-19 12:06N 43°05' E 010°20'217.4
2018-Apr-19 12:00N 43°06' E 010°19'917.5
2018-Apr-19 11:30N 43°14' E 010°14'917.6
2018-Apr-19 11:00N 43°22' E 010°08'917.3
2018-Apr-19 10:30N 43°30' E 010°05'917.6
2018-Apr-19 10:00N 43°39' E 010°05'917.9
2018-Apr-19 09:30N 43°48' E 010°04'918.0
2018-Apr-19 09:00N 43°57' E 010°03'510.5
2018-Apr-19 08:30N 44°02' E 010°03'0 0.0
2018-Apr-19 08:00N 44°02' E 010°03'0 0.0
2018-Apr-19 07:30N 44°02' E 010°03'0 0.0
2018-Apr-19 07:00N 44°02' E 010°03'0 0.0
2018-Apr-19 06:30N 44°02' E 010°03'0 0.0
2018-Apr-19 06:00N 44°02' E 010°03'0 0.0
2018-Apr-19 05:27N 44°02' E 010°03'0 0.0
2018-Apr-19 05:00N 44°02' E 010°03'0 0.0
2018-Apr-19 04:30N 44°02' E 010°03'2 3.1
2018-Apr-19 04:00N 44°01' E 010°02'1 1.3
2018-Apr-19 03:28N 44°00' E 010°01'0 0.1
2018-Apr-19 02:58N 44°00' E 010°01'0 0.0
2018-Apr-19 02:28N 44°00' E 010°01'0 0.1
2018-Apr-19 01:55N 44°00' E 010°01'0 0.0
2018-Apr-19 01:28N 44°00' E 010°01'0 0.0
2018-Apr-19 00:58N 44°00' E 010°01'0 0.0
2018-Apr-19 00:28N 44°00' E 010°01'0 0.0
2018-Apr-18 23:58N 44°00' E 010°01'0 0.0
2018-Apr-18 23:28N 44°00' E 010°01'0 0.1
2018-Apr-18 22:58N 44°00' E 010°01'0 0.0
2018-Apr-18 22:28N 44°00' E 010°01'0 0.0
2018-Apr-18 21:58N 44°00' E 010°01'0 0.0
2018-Apr-18 21:28N 44°00' E 010°01'0 0.0
2018-Apr-18 20:58N 44°00' E 010°01'0 0.0
2018-Apr-18 20:28N 44°00' E 010°01'0 0.1
2018-Apr-18 20:00N 44°00' E 010°01'714.0
2018-Apr-18 19:31N 43°56' E 009°53'817.0
2018-Apr-18 19:01N 43°51' E 009°44'816.8
2018-Apr-18 18:30N 43°46' E 009°35'816.8
2018-Apr-18 18:01N 43°41' E 009°26'917.8
2018-Apr-18 17:30N 43°35' E 009°16'917.7
2018-Apr-18 17:00N 43°30' E 009°06'917.6
2018-Apr-18 16:30N 43°24' E 008°57'34416.7
2018-Apr-17 19:56N 39°57' E 002°48'717.1
2018-Apr-17 19:30N 39°53' E 002°40'1417.2
2018-Apr-17 18:41N 39°43' E 002°27'1412.3
2018-Apr-17 17:33N 39°30' E 002°23'116.4
2018-Apr-17 17:30N 39°29' E 002°23'815.2
2018-Apr-17 17:00N 39°26' E 002°32'714.6
2018-Apr-17 16:31N 39°32' E 002°38'2 3.0
2018-Apr-17 16:00N 39°34' E 002°38'0 0.0
2018-Apr-17 15:29N 39°34' E 002°38'0 0.0
2018-Apr-17 14:59N 39°34' E 002°38'0 0.0
2018-Apr-17 14:29N 39°34' E 002°38'0 0.0
2018-Apr-17 13:59N 39°34' E 002°38'0 0.0
2018-Apr-17 13:29N 39°34' E 002°38'0 0.0
2018-Apr-17 12:59N 39°34' E 002°38'0 0.0
2018-Apr-17 12:29N 39°34' E 002°38'0 0.0
2018-Apr-17 11:59N 39°34' E 002°38'0 0.0
2018-Apr-17 11:26N 39°34' E 002°38'0 0.0
2018-Apr-17 10:59N 39°34' E 002°38'0 0.0
2018-Apr-17 10:29N 39°34' E 002°38'0 0.0
2018-Apr-17 09:59N 39°34' E 002°38'0 0.0
2018-Apr-17 09:29N 39°34' E 002°38'0 0.0
2018-Apr-17 08:59N 39°34' E 002°38'0 0.0
2018-Apr-17 08:29N 39°34' E 002°38'0 0.0
2018-Apr-17 07:59N 39°34' E 002°38'0 0.0
2018-Apr-17 07:29N 39°34' E 002°38'0 0.0
2018-Apr-17 06:59N 39°34' E 002°38'0 0.0
2018-Apr-17 06:29N 39°34' E 002°38'0 0.0
2018-Apr-17 05:59N 39°34' E 002°38'0 0.0
2018-Apr-17 05:29N 39°34' E 002°38'0 0.2
2018-Apr-17 05:00N 39°34' E 002°38'2 4.5
2018-Apr-17 04:30N 39°31' E 002°38'5 9.6
2018-Apr-17 04:00N 39°28' E 002°34'5 9.5
2018-Apr-17 03:30N 39°25' E 002°29'510.2
2018-Apr-17 03:00N 39°23' E 002°23'510.1
2018-Apr-17 02:29N 39°22' E 002°16'144 3.5
2018-Apr-15 09:42N 38°09' W 000°24'1113.6
2018-Apr-15 08:52N 37°58' W 000°25'1213.7
2018-Apr-15 07:59N 37°46' W 000°27'713.9
2018-Apr-15 07:30N 37°39' W 000°29'613.1
2018-Apr-15 07:00N 37°33' W 000°31'814.7
2018-Apr-15 06:30N 37°28' W 000°37'715.0
2018-Apr-15 06:00N 37°23' W 000°44'814.6
2018-Apr-15 05:26N 37°17' W 000°52'714.2
2018-Apr-15 04:56N 37°13' W 000°59'20114.5
2018-Apr-14 15:05N 36°02' W 004°53'716.3
2018-Apr-14 14:40N 36°00' W 005°01'716.8
2018-Apr-14 14:16N 35°59' W 005°09'518.4
2018-Apr-14 14:00N 35°59' W 005°15'918.0
2018-Apr-14 13:30N 35°57' W 005°26'28512.6
2018-Apr-13 14:51N 38°55' W 010°06'615.3
2018-Apr-13 14:29N 39°01' W 010°06'715.3
2018-Apr-13 14:00N 39°08' W 010°07'  
Track history (hours):
 
Tides and Currents Weather Stations Pressure Air Temp Water Temp Dewpoint Dewpoint Depression Visibility Wind Speed Wind Dir Waves Ship Positions

Deo Volente

Last reported at 2018-Apr-22 11:40 UTC. Time now 2018-Apr-23 05:43 UTC.
Position N 37°42' E 016°10'.

Length 105 m; draft 5.2 m.

Type: Cargo ship. MMSI: 246518000.

Date/timePositionNaut miles runAvg speedWind from/ knotsBaromVisibWave heightAir tempDewpointWater temp
2018-Apr-22 11:40N 37°42' E 016°10'317.2
2018-Apr-22 11:28N 37°44' E 016°06'816.8
2018-Apr-22 11:01N 37°47' E 015°57'816.9
2018-Apr-22 10:31N 37°51' E 015°48'817.0
2018-Apr-22 10:01N 37°56' E 015°39'1018.6
2018-Apr-22 09:29N 38°05' E 015°36'918.8
2018-Apr-22 09:01N 38°14' E 015°36'612.3
2018-Apr-22 08:31N 38°20' E 015°37'917.7
2018-Apr-22 08:01N 38°27' E 015°30'918.0
2018-Apr-22 07:30N 38°34' E 015°22'918.0
2018-Apr-22 07:00N 38°40' E 015°14'917.7
2018-Apr-22 06:29N 38°47' E 015°06'7017.8
2018-Apr-22 02:33N 39°34' E 013°59'118.3
2018-Apr-22 02:30N 39°34' E 013°58'918.0
2018-Apr-22 02:00N 39°40' E 013°49'917.8
2018-Apr-22 01:30N 39°46' E 013°41'917.6
2018-Apr-22 01:00N 39°52' E 013°32'917.8
2018-Apr-22 00:30N 39°58' E 013°24'3018.0
2018-Apr-21 22:51N 40°19' E 012°55'817.8
2018-Apr-21 22:23N 40°24' E 012°47'718.0
2018-Apr-21 21:59N 40°29' E 012°40'1817.9
2018-Apr-21 20:58N 40°42' E 012°23'7317.5
2018-Apr-21 16:48N 41°31' E 011°11'8517.4
2018-Apr-21 11:55N 42°31' E 009°51'2317.4
2018-Apr-21 10:36N 42°52' E 009°37'317.8
2018-Apr-21 10:26N 42°55' E 009°36'818.0
2018-Apr-21 10:00N 43°02' E 009°34'917.9
2018-Apr-21 09:30N 43°09' E 009°25'917.9
2018-Apr-21 09:00N 43°13' E 009°15'917.4
2018-Apr-21 08:30N 43°18' E 009°05'917.4
2018-Apr-21 08:00N 43°23' E 008°55'917.5
2018-Apr-21 07:30N 43°29' E 008°46'917.3
2018-Apr-21 07:00N 43°34' E 008°37'816.8
2018-Apr-21 06:30N 43°39' E 008°27'816.9
2018-Apr-21 06:00N 43°44' E 008°18'4 0.2
2018-Apr-20 13:11N 43°45' E 008°23'318.3
2018-Apr-20 13:00N 43°43' E 008°27'917.2
2018-Apr-20 12:30N 43°37' E 008°35'917.8
2018-Apr-20 12:00N 43°32' E 008°45'917.7
2018-Apr-20 11:30N 43°27' E 008°55'917.5
2018-Apr-20 11:00N 43°21' E 009°04'918.0
2018-Apr-20 10:30N 43°16' E 009°14'917.6
2018-Apr-20 10:00N 43°11' E 009°24'917.5
2018-Apr-20 09:30N 43°05' E 009°33'917.5
2018-Apr-20 09:00N 42°58' E 009°41'1217.6
2018-Apr-20 08:19N 42°47' E 009°47'617.8
2018-Apr-20 08:00N 42°45' E 009°54'917.7
2018-Apr-20 07:30N 42°41' E 010°05'917.8
2018-Apr-20 06:58N 42°38' E 010°17'817.8
2018-Apr-20 06:30N 42°35' E 010°27'30 1.6
2018-Apr-19 12:06N 43°05' E 010°20'217.4
2018-Apr-19 12:00N 43°06' E 010°19'917.5
2018-Apr-19 11:30N 43°14' E 010°14'917.6
2018-Apr-19 11:00N 43°22' E 010°08'917.3
2018-Apr-19 10:30N 43°30' E 010°05'917.6
2018-Apr-19 10:00N 43°39' E 010°05'917.9
2018-Apr-19 09:30N 43°48' E 010°04'918.0
2018-Apr-19 09:00N 43°57' E 010°03'510.5
2018-Apr-19 08:30N 44°02' E 010°03'0 0.0
2018-Apr-19 08:00N 44°02' E 010°03'0 0.0
2018-Apr-19 07:30N 44°02' E 010°03'0 0.0
2018-Apr-19 07:00N 44°02' E 010°03'0 0.0
2018-Apr-19 06:30N 44°02' E 010°03'0 0.0
2018-Apr-19 06:00N 44°02' E 010°03'0 0.0
2018-Apr-19 05:27N 44°02' E 010°03'0 0.0
2018-Apr-19 05:00N 44°02' E 010°03'0 0.0
2018-Apr-19 04:30N 44°02' E 010°03'2 3.1
2018-Apr-19 04:00N 44°01' E 010°02'1 1.3
2018-Apr-19 03:28N 44°00' E 010°01'0 0.1
2018-Apr-19 02:58N 44°00' E 010°01'0 0.0
2018-Apr-19 02:28N 44°00' E 010°01'0 0.1
2018-Apr-19 01:55N 44°00' E 010°01'0 0.0
2018-Apr-19 01:28N 44°00' E 010°01'0 0.0
2018-Apr-19 00:58N 44°00' E 010°01'0 0.0
2018-Apr-19 00:28N 44°00' E 010°01'0 0.0
2018-Apr-18 23:58N 44°00' E 010°01'0 0.0
2018-Apr-18 23:28N 44°00' E 010°01'0 0.1
2018-Apr-18 22:58N 44°00' E 010°01'0 0.0
2018-Apr-18 22:28N 44°00' E 010°01'0 0.0
2018-Apr-18 21:58N 44°00' E 010°01'0 0.0
2018-Apr-18 21:28N 44°00' E 010°01'0 0.0
2018-Apr-18 20:58N 44°00' E 010°01'0 0.0
2018-Apr-18 20:28N 44°00' E 010°01'0 0.1
2018-Apr-18 20:00N 44°00' E 010°01'714.0
2018-Apr-18 19:31N 43°56' E 009°53'817.0
2018-Apr-18 19:01N 43°51' E 009°44'816.8
2018-Apr-18 18:30N 43°46' E 009°35'816.8
2018-Apr-18 18:01N 43°41' E 009°26'917.8
2018-Apr-18 17:30N 43°35' E 009°16'917.7
2018-Apr-18 17:00N 43°30' E 009°06'917.6
2018-Apr-18 16:30N 43°24' E 008°57'34416.7
2018-Apr-17 19:56N 39°57' E 002°48'717.1
2018-Apr-17 19:30N 39°53' E 002°40'1417.2
2018-Apr-17 18:41N 39°43' E 002°27'1412.3
2018-Apr-17 17:33N 39°30' E 002°23'116.4
2018-Apr-17 17:30N 39°29' E 002°23'815.2
2018-Apr-17 17:00N 39°26' E 002°32'714.6
2018-Apr-17 16:31N 39°32' E 002°38'2 3.0
2018-Apr-17 16:00N 39°34' E 002°38'0 0.0
2018-Apr-17 15:29N 39°34' E 002°38'0 0.0
2018-Apr-17 14:59N 39°34' E 002°38'0 0.0
2018-Apr-17 14:29N 39°34' E 002°38'0 0.0
2018-Apr-17 13:59N 39°34' E 002°38'0 0.0
2018-Apr-17 13:29N 39°34' E 002°38'0 0.0
2018-Apr-17 12:59N 39°34' E 002°38'0 0.0
2018-Apr-17 12:29N 39°34' E 002°38'0 0.0
2018-Apr-17 11:59N 39°34' E 002°38'0 0.0
2018-Apr-17 11:26N 39°34' E 002°38'0 0.0
2018-Apr-17 10:59N 39°34' E 002°38'0 0.0
2018-Apr-17 10:29N 39°34' E 002°38'0 0.0
2018-Apr-17 09:59N 39°34' E 002°38'0 0.0
2018-Apr-17 09:29N 39°34' E 002°38'0 0.0
2018-Apr-17 08:59N 39°34' E 002°38'0 0.0
2018-Apr-17 08:29N 39°34' E 002°38'0 0.0
2018-Apr-17 07:59N 39°34' E 002°38'0 0.0
2018-Apr-17 07:29N 39°34' E 002°38'0 0.0
2018-Apr-17 06:59N 39°34' E 002°38'0 0.0
2018-Apr-17 06:29N 39°34' E 002°38'0 0.0
2018-Apr-17 05:59N 39°34' E 002°38'0 0.0
2018-Apr-17 05:29N 39°34' E 002°38'0 0.2
2018-Apr-17 05:00N 39°34' E 002°38'2 4.5
2018-Apr-17 04:30N 39°31' E 002°38'5 9.6
2018-Apr-17 04:00N 39°28' E 002°34'5 9.5
2018-Apr-17 03:30N 39°25' E 002°29'510.2
2018-Apr-17 03:00N 39°23' E 002°23'510.1
2018-Apr-17 02:29N 39°22' E 002°16'144 3.5
2018-Apr-15 09:42N 38°09' W 000°24'1113.6
2018-Apr-15 08:52N 37°58' W 000°25'1213.7
2018-Apr-15 07:59N 37°46' W 000°27'713.9
2018-Apr-15 07:30N 37°39' W 000°29'613.1
2018-Apr-15 07:00N 37°33' W 000°31'814.7
2018-Apr-15 06:30N 37°28' W 000°37'715.0
2018-Apr-15 06:00N 37°23' W 000°44'814.6
2018-Apr-15 05:26N 37°17' W 000°52'714.2
2018-Apr-15 04:56N 37°13' W 000°59'20114.5
2018-Apr-14 15:05N 36°02' W 004°53'716.3
2018-Apr-14 14:40N 36°00' W 005°01'716.8
2018-Apr-14 14:16N 35°59' W 005°09'518.4
2018-Apr-14 14:00N 35°59' W 005°15'918.0
2018-Apr-14 13:30N 35°57' W 005°26'28512.6
2018-Apr-13 14:51N 38°55' W 010°06'615.3
2018-Apr-13 14:29N 39°01' W 010°06'715.3
2018-Apr-13 14:00N 39°08' W 010°07'  

Dump ship's entire track history